sensor_id;sensor_type;location;lat;lon;timestamp;pressure;altitude;pressure_sealevel;temperature;humidity
13013;BME280;22580;57.670;12.006;2023-05-02T00:00:05;100833.66;;;14.93;79.25
13013;BME280;22580;57.670;12.006;2023-05-02T00:02:32;100829.75;;;15.06;78.65
13013;BME280;22580;57.670;12.006;2023-05-02T00:04:59;100809.19;;;14.65;79.11
13013;BME280;22580;57.670;12.006;2023-05-02T00:07:26;100845.50;;;14.50;80.33
13013;BME280;22580;57.670;12.006;2023-05-02T00:09:53;100853.53;;;15.32;77.84
13013;BME280;22580;57.670;12.006;2023-05-02T00:12:20;100842.00;;;15.20;76.71
13013;BME280;22580;57.670;12.006;2023-05-02T00:14:49;100855.41;;;15.51;75.89
13013;BME280;22580;57.670;12.006;2023-05-02T00:17:17;100856.59;;;15.18;76.40
13013;BME280;22580;57.670;12.006;2023-05-02T00:19:44;100858.19;;;15.30;76.39
13013;BME280;22580;57.670;12.006;2023-05-02T00:22:11;100861.69;;;14.90;77.10
13013;BME280;22580;57.670;12.006;2023-05-02T00:24:38;100824.56;;;14.54;77.36
13013;BME280;22580;57.670;12.006;2023-05-02T00:27:05;100866.22;;;15.20;75.96
13013;BME280;22580;57.670;12.006;2023-05-02T00:29:31;100833.13;;;14.99;75.76
13013;BME280;22580;57.670;12.006;2023-05-02T00:32:00;100867.19;;;15.09;75.94
13013;BME280;22580;57.670;12.006;2023-05-02T00:34:28;100869.31;;;15.16;75.45
13013;BME280;22580;57.670;12.006;2023-05-02T00:36:55;100870.47;;;15.53;74.55
13013;BME280;22580;57.670;12.006;2023-05-02T00:39:23;100876.56;;;15.55;73.70
13013;BME280;22580;57.670;12.006;2023-05-02T00:41:55;100881.06;;;14.84;74.87
13013;BME280;22580;57.670;12.006;2023-05-02T00:44:22;100881.09;;;15.15;74.05
13013;BME280;22580;57.670;12.006;2023-05-02T00:46:49;100892.47;;;14.97;74.84
13013;BME280;22580;57.670;12.006;2023-05-02T00:49:18;100876.41;;;14.24;75.60
13013;BME280;22580;57.670;12.006;2023-05-02T00:51:47;100883.22;;;14.28;76.18
13013;BME280;22580;57.670;12.006;2023-05-02T00:54:14;100897.50;;;14.60;75.37
13013;BME280;22580;57.670;12.006;2023-05-02T00:56:45;100904.69;;;15.01;73.97
13013;BME280;22580;57.670;12.006;2023-05-02T00:59:13;100884.34;;;14.25;75.79
13013;BME280;22580;57.670;12.006;2023-05-02T01:01:52;100876.09;;;14.38;76.19
13013;BME280;22580;57.670;12.006;2023-05-02T01:04:30;100917.97;;;14.52;75.95
13013;BME280;22580;57.670;12.006;2023-05-02T01:07:09;100906.31;;;14.62;74.66
13013;BME280;22580;57.670;12.006;2023-05-02T01:09:50;100878.03;;;14.68;74.46
13013;BME280;22580;57.670;12.006;2023-05-02T01:12:26;100905.41;;;14.83;74.04
13013;BME280;22580;57.670;12.006;2023-05-02T01:14:56;100902.88;;;14.81;73.77
13013;BME280;22580;57.670;12.006;2023-05-02T01:17:26;100925.88;;;15.16;73.79
13013;BME280;22580;57.670;12.006;2023-05-02T01:19:57;100909.13;;;14.61;73.55
13013;BME280;22580;57.670;12.006;2023-05-02T01:22:27;100929.84;;;14.91;72.70
13013;BME280;22580;57.670;12.006;2023-05-02T01:25:01;100928.66;;;14.42;74.58
13013;BME280;22580;57.670;12.006;2023-05-02T01:27:42;100925.53;;;14.58;73.83
13013;BME280;22580;57.670;12.006;2023-05-02T01:30:17;100929.91;;;14.80;72.80
13013;BME280;22580;57.670;12.006;2023-05-02T01:32:46;100950.13;;;14.95;72.82
13013;BME280;22580;57.670;12.006;2023-05-02T01:35:15;100932.41;;;14.51;73.13
13013;BME280;22580;57.670;12.006;2023-05-02T01:37:44;100946.75;;;14.72;72.37
13013;BME280;22580;57.670;12.006;2023-05-02T01:40:15;100964.28;;;14.76;73.02
13013;BME280;22580;57.670;12.006;2023-05-02T01:42:44;100957.72;;;14.48;73.08
13013;BME280;22580;57.670;12.006;2023-05-02T01:45:15;100974.03;;;13.81;75.59
13013;BME280;22580;57.670;12.006;2023-05-02T01:47:43;100983.13;;;14.12;74.83
13013;BME280;22580;57.670;12.006;2023-05-02T01:50:13;100985.31;;;14.18;75.28
13013;BME280;22580;57.670;12.006;2023-05-02T01:52:43;100984.56;;;14.16;75.02
13013;BME280;22580;57.670;12.006;2023-05-02T01:55:14;100990.00;;;14.48;73.92
13013;BME280;22580;57.670;12.006;2023-05-02T01:57:43;100981.09;;;14.48;73.16
13013;BME280;22580;57.670;12.006;2023-05-02T02:00:13;100972.38;;;14.12;74.57
13013;BME280;22580;57.670;12.006;2023-05-02T02:02:44;100992.97;;;14.34;73.28
13013;BME280;22580;57.670;12.006;2023-05-02T02:05:13;100977.94;;;14.42;73.40
13013;BME280;22580;57.670;12.006;2023-05-02T02:07:41;100994.97;;;14.64;72.18
13013;BME280;22580;57.670;12.006;2023-05-02T02:10:09;100990.09;;;14.58;71.55
13013;BME280;22580;57.670;12.006;2023-05-02T02:12:40;100956.06;;;14.25;71.48
13013;BME280;22580;57.670;12.006;2023-05-02T02:15:15;101003.16;;;14.08;73.48
13013;BME280;22580;57.670;12.006;2023-05-02T02:17:48;100994.25;;;14.07;72.02
13013;BME280;22580;57.670;12.006;2023-05-02T02:20:17;100989.16;;;14.36;71.32
13013;BME280;22580;57.670;12.006;2023-05-02T02:22:45;101001.88;;;14.46;70.81
13013;BME280;22580;57.670;12.006;2023-05-02T02:25:15;101020.41;;;14.60;69.92
13013;BME280;22580;57.670;12.006;2023-05-02T02:27:43;101003.00;;;14.43;69.91
13013;BME280;22580;57.670;12.006;2023-05-02T02:30:11;101023.88;;;14.39;70.71
13013;BME280;22580;57.670;12.006;2023-05-02T02:32:38;101022.78;;;14.31;70.95
13013;BME280;22580;57.670;12.006;2023-05-02T02:35:08;101018.53;;;14.17;71.04
13013;BME280;22580;57.670;12.006;2023-05-02T02:37:40;100997.78;;;14.08;70.77
13013;BME280;22580;57.670;12.006;2023-05-02T02:40:13;101023.66;;;14.31;70.42
13013;BME280;22580;57.670;12.006;2023-05-02T02:42:49;101026.84;;;14.14;70.66
13013;BME280;22580;57.670;12.006;2023-05-02T02:45:26;101023.81;;;14.07;70.91
13013;BME280;22580;57.670;12.006;2023-05-02T02:48:02;101023.94;;;14.06;70.48
13013;BME280;22580;57.670;12.006;2023-05-02T02:50:43;101034.00;;;13.82;72.00
13013;BME280;22580;57.670;12.006;2023-05-02T02:53:16;101030.09;;;13.86;72.14
13013;BME280;22580;57.670;12.006;2023-05-02T02:55:47;101044.59;;;14.05;71.51
13013;BME280;22580;57.670;12.006;2023-05-02T02:58:30;101033.47;;;14.10;70.35
13013;BME280;22580;57.670;12.006;2023-05-02T03:01:01;101046.22;;;13.86;71.56
13013;BME280;22580;57.670;12.006;2023-05-02T03:03:31;101053.03;;;14.01;71.05
13013;BME280;22580;57.670;12.006;2023-05-02T03:06:00;101042.03;;;13.93;70.65
13013;BME280;22580;57.670;12.006;2023-05-02T03:08:37;101060.97;;;13.91;70.96
13013;BME280;22580;57.670;12.006;2023-05-02T03:11:04;100992.22;;;13.44;71.45
13013;BME280;22580;57.670;12.006;2023-05-02T03:13:31;101064.19;;;13.85;71.08
13013;BME280;22580;57.670;12.006;2023-05-02T03:16:17;101065.13;;;13.62;72.01
13013;BME280;22580;57.670;12.006;2023-05-02T03:18:51;101067.16;;;13.36;72.78
13013;BME280;22580;57.670;12.006;2023-05-02T03:21:20;101069.50;;;13.52;72.43
13013;BME280;22580;57.670;12.006;2023-05-02T03:23:47;101057.94;;;13.73;71.54
13013;BME280;22580;57.670;12.006;2023-05-02T03:26:14;101076.00;;;13.94;70.95
13013;BME280;22580;57.670;12.006;2023-05-02T03:28:42;101051.09;;;13.69;70.58
13013;BME280;22580;57.670;12.006;2023-05-02T03:31:11;101088.22;;;14.09;70.26
13013;BME280;22580;57.670;12.006;2023-05-02T03:33:38;101080.41;;;13.61;71.12
13013;BME280;22580;57.670;12.006;2023-05-02T03:36:05;101097.25;;;13.74;71.77
13013;BME280;22580;57.670;12.006;2023-05-02T03:38:37;101073.34;;;13.83;71.04
13013;BME280;22580;57.670;12.006;2023-05-02T03:41:05;101067.94;;;14.05;69.96
13013;BME280;22580;57.670;12.006;2023-05-02T03:43:32;101097.59;;;14.26;69.40
13013;BME280;22580;57.670;12.006;2023-05-02T03:46:07;101099.31;;;14.16;69.77
13013;BME280;22580;57.670;12.006;2023-05-02T03:48:36;101066.94;;;14.06;69.13
13013;BME280;22580;57.670;12.006;2023-05-02T03:51:07;101103.72;;;14.28;68.97
13013;BME280;22580;57.670;12.006;2023-05-02T03:53:49;101051.78;;;14.05;68.35
13013;BME280;22580;57.670;12.006;2023-05-02T03:56:16;101117.91;;;14.19;68.62
13013;BME280;22580;57.670;12.006;2023-05-02T03:58:45;101046.47;;;13.71;68.87
13013;BME280;22580;57.670;12.006;2023-05-02T04:01:15;101124.63;;;14.24;68.65
13013;BME280;22580;57.670;12.006;2023-05-02T04:03:42;101126.44;;;14.01;68.43
13013;BME280;22580;57.670;12.006;2023-05-02T04:06:10;101121.09;;;14.46;67.50
13013;BME280;22580;57.670;12.006;2023-05-02T04:08:37;101123.38;;;14.28;68.03
13013;BME280;22580;57.670;12.006;2023-05-02T04:11:05;101125.84;;;14.42;67.01
13013;BME280;22580;57.670;12.006;2023-05-02T04:13:32;101132.19;;;14.08;67.97
13013;BME280;22580;57.670;12.006;2023-05-02T04:15:59;101128.78;;;14.28;67.40
13013;BME280;22580;57.670;12.006;2023-05-02T04:18:26;101139.28;;;14.20;67.25
13013;BME280;22580;57.670;12.006;2023-05-02T04:20:53;101149.81;;;14.46;67.62
13013;BME280;22580;57.670;12.006;2023-05-02T04:23:20;101142.84;;;14.54;66.47
13013;BME280;22580;57.670;12.006;2023-05-02T04:25:50;101133.03;;;14.31;67.01
13013;BME280;22580;57.670;12.006;2023-05-02T04:28:20;101158.75;;;14.46;67.08
13013;BME280;22580;57.670;12.006;2023-05-02T04:30:47;101156.75;;;14.03;68.53
13013;BME280;22580;57.670;12.006;2023-05-02T04:33:14;101138.03;;;13.91;67.66
13013;BME280;22580;57.670;12.006;2023-05-02T04:35:42;101167.50;;;13.81;69.78
13013;BME280;22580;57.670;12.006;2023-05-02T04:38:09;101153.41;;;13.55;69.82
13013;BME280;22580;57.670;12.006;2023-05-02T04:40:36;101114.25;;;13.75;68.31
13013;BME280;22580;57.670;12.006;2023-05-02T04:43:03;101131.22;;;14.20;67.07
13013;BME280;22580;57.670;12.006;2023-05-02T04:45:33;101137.94;;;13.92;67.34
13013;BME280;22580;57.670;12.006;2023-05-02T04:48:05;101199.75;;;14.03;68.15
13013;BME280;22580;57.670;12.006;2023-05-02T04:50:33;101176.28;;;13.72;68.16
13013;BME280;22580;57.670;12.006;2023-05-02T04:52:59;101175.31;;;13.73;68.46
13013;BME280;22580;57.670;12.006;2023-05-02T04:55:27;101186.91;;;13.73;69.34
13013;BME280;22580;57.670;12.006;2023-05-02T04:57:54;101189.78;;;13.59;69.50
13013;BME280;22580;57.670;12.006;2023-05-02T05:00:24;101205.66;;;13.62;69.83
13013;BME280;22580;57.670;12.006;2023-05-02T05:02:52;101206.34;;;13.42;68.51
13013;BME280;22580;57.670;12.006;2023-05-02T05:05:19;101198.75;;;13.71;68.83
13013;BME280;22580;57.670;12.006;2023-05-02T05:07:46;101204.97;;;13.71;68.51
13013;BME280;22580;57.670;12.006;2023-05-02T05:10:13;101208.88;;;13.67;67.83
13013;BME280;22580;57.670;12.006;2023-05-02T05:12:40;101225.75;;;13.92;67.59
13013;BME280;22580;57.670;12.006;2023-05-02T05:15:08;101230.63;;;13.87;66.69
13013;BME280;22580;57.670;12.006;2023-05-02T05:17:36;101231.88;;;13.94;67.55
13013;BME280;22580;57.670;12.006;2023-05-02T05:20:06;101233.91;;;14.36;66.50
13013;BME280;22580;57.670;12.006;2023-05-02T05:22:37;101240.78;;;14.52;65.78
13013;BME280;22580;57.670;12.006;2023-05-02T05:25:06;101240.13;;;14.37;64.94
13013;BME280;22580;57.670;12.006;2023-05-02T05:27:35;101246.13;;;14.40;65.78
13013;BME280;22580;57.670;12.006;2023-05-02T05:30:03;101236.94;;;14.32;65.75
13013;BME280;22580;57.670;12.006;2023-05-02T05:32:32;101241.75;;;14.51;64.80
13013;BME280;22580;57.670;12.006;2023-05-02T05:34:59;101250.56;;;14.53;64.91
13013;BME280;22580;57.670;12.006;2023-05-02T05:37:27;101215.06;;;14.36;63.61
13013;BME280;22580;57.670;12.006;2023-05-02T05:39:54;101204.53;;;14.11;64.04
13013;BME280;22580;57.670;12.006;2023-05-02T05:42:21;101247.38;;;14.48;63.65
13013;BME280;22580;57.670;12.006;2023-05-02T05:44:48;101238.75;;;14.98;62.68
13013;BME280;22580;57.670;12.006;2023-05-02T05:47:18;101261.28;;;14.86;62.73
13013;BME280;22580;57.670;12.006;2023-05-02T05:49:46;101256.16;;;14.94;62.01
13013;BME280;22580;57.670;12.006;2023-05-02T05:52:13;101259.19;;;15.12;60.93
13013;BME280;22580;57.670;12.006;2023-05-02T05:54:45;101212.03;;;14.41;61.14
13013;BME280;22580;57.670;12.006;2023-05-02T05:57:21;101245.06;;;14.54;61.77
13013;BME280;22580;57.670;12.006;2023-05-02T05:59:52;101237.16;;;15.07;61.40
13013;BME280;22580;57.670;12.006;2023-05-02T06:02:21;101261.69;;;15.36;62.61
13013;BME280;22580;57.670;12.006;2023-05-02T06:04:48;101255.16;;;14.95;59.52
13013;BME280;22580;57.670;12.006;2023-05-02T06:07:17;101287.53;;;15.38;59.72
13013;BME280;22580;57.670;12.006;2023-05-02T06:09:45;101287.97;;;14.45;60.77
13013;BME280;22580;57.670;12.006;2023-05-02T06:12:12;101298.22;;;15.18;59.73
13013;BME280;22580;57.670;12.006;2023-05-02T06:14:43;101301.91;;;14.83;59.04
13013;BME280;22580;57.670;12.006;2023-05-02T06:17:10;101280.41;;;14.61;59.16
13013;BME280;22580;57.670;12.006;2023-05-02T06:19:37;101279.44;;;14.62;59.52
13013;BME280;22580;57.670;12.006;2023-05-02T06:22:04;101329.44;;;15.09;58.89
13013;BME280;22580;57.670;12.006;2023-05-02T06:24:31;101323.63;;;15.47;57.74
13013;BME280;22580;57.670;12.006;2023-05-02T06:27:01;101298.94;;;15.20;59.13
13013;BME280;22580;57.670;12.006;2023-05-02T06:29:29;101297.75;;;14.90;57.23
13013;BME280;22580;57.670;12.006;2023-05-02T06:31:55;101336.13;;;15.59;56.63
13013;BME280;22580;57.670;12.006;2023-05-02T06:34:23;101347.47;;;16.27;58.56
13013;BME280;22580;57.670;12.006;2023-05-02T06:36:53;101355.19;;;15.56;54.08
13013;BME280;22580;57.670;12.006;2023-05-02T06:39:22;101358.28;;;15.95;53.99
13013;BME280;22580;57.670;12.006;2023-05-02T06:41:49;101292.28;;;15.46;53.77
13013;BME280;22580;57.670;12.006;2023-05-02T06:44:18;101321.09;;;15.78;52.76
13013;BME280;22580;57.670;12.006;2023-05-02T06:46:45;101368.50;;;15.80;52.47
13013;BME280;22580;57.670;12.006;2023-05-02T06:49:13;101347.47;;;15.63;51.95
13013;BME280;22580;57.670;12.006;2023-05-02T06:51:41;101337.50;;;15.09;53.35
13013;BME280;22580;57.670;12.006;2023-05-02T06:54:08;101373.09;;;15.46;50.75
13013;BME280;22580;57.670;12.006;2023-05-02T06:56:36;101333.00;;;15.64;50.92
13013;BME280;22580;57.670;12.006;2023-05-02T06:59:06;101377.84;;;16.08;50.94
13013;BME280;22580;57.670;12.006;2023-05-02T07:01:40;101345.72;;;15.73;51.55
13013;BME280;22580;57.670;12.006;2023-05-02T07:04:07;101359.88;;;15.54;51.03
13013;BME280;22580;57.670;12.006;2023-05-02T07:06:34;101384.50;;;15.05;51.24
13013;BME280;22580;57.670;12.006;2023-05-02T07:09:01;101386.81;;;15.97;50.23
13013;BME280;22580;57.670;12.006;2023-05-02T07:11:28;101405.03;;;16.58;48.38
13013;BME280;22580;57.670;12.006;2023-05-02T07:13:55;101401.03;;;15.99;45.58
13013;BME280;22580;57.670;12.006;2023-05-02T07:16:28;101384.06;;;16.41;45.99
13013;BME280;22580;57.670;12.006;2023-05-02T07:18:59;101374.19;;;16.30;42.86
13013;BME280;22580;57.670;12.006;2023-05-02T07:21:29;101403.94;;;16.81;41.88
13013;BME280;22580;57.670;12.006;2023-05-02T07:23:56;101421.03;;;16.29;42.24
13013;BME280;22580;57.670;12.006;2023-05-02T07:26:24;101426.78;;;16.35;39.78
13013;BME280;22580;57.670;12.006;2023-05-02T07:28:52;101433.53;;;15.98;39.33
13013;BME280;22580;57.670;12.006;2023-05-02T07:31:19;101422.88;;;16.28;40.19
13013;BME280;22580;57.670;12.006;2023-05-02T07:33:47;101433.59;;;16.60;39.27
13013;BME280;22580;57.670;12.006;2023-05-02T07:36:16;101431.41;;;16.65;42.33
13013;BME280;22580;57.670;12.006;2023-05-02T07:38:43;101401.91;;;17.34;39.40
13013;BME280;22580;57.670;12.006;2023-05-02T07:41:12;101440.78;;;17.43;36.50
13013;BME280;22580;57.670;12.006;2023-05-02T07:43:39;101416.31;;;17.85;37.38
13013;BME280;22580;57.670;12.006;2023-05-02T07:46:06;101432.13;;;18.38;37.99
13013;BME280;22580;57.670;12.006;2023-05-02T07:48:33;101448.34;;;17.89;32.89
13013;BME280;22580;57.670;12.006;2023-05-02T07:51:06;101440.63;;;17.45;32.04
13013;BME280;22580;57.670;12.006;2023-05-02T07:53:34;101460.25;;;17.67;33.25
13013;BME280;22580;57.670;12.006;2023-05-02T07:56:02;101462.91;;;17.27;31.56
13013;BME280;22580;57.670;12.006;2023-05-02T07:58:30;101462.09;;;17.67;33.42
13013;BME280;22580;57.670;12.006;2023-05-02T08:00:57;101464.91;;;17.35;32.36
13013;BME280;22580;57.670;12.006;2023-05-02T08:03:24;101470.13;;;17.57;32.98
13013;BME280;22580;57.670;12.006;2023-05-02T08:05:52;101468.28;;;16.97;32.65
13013;BME280;22580;57.670;12.006;2023-05-02T08:08:20;101469.50;;;17.44;33.48
13013;BME280;22580;57.670;12.006;2023-05-02T08:10:49;101471.13;;;17.56;31.37
13013;BME280;22580;57.670;12.006;2023-05-02T08:13:16;101455.56;;;17.69;30.97
13013;BME280;22580;57.670;12.006;2023-05-02T08:15:43;101476.72;;;17.34;31.35
13013;BME280;22580;57.670;12.006;2023-05-02T08:18:10;101467.09;;;17.11;30.81
13013;BME280;22580;57.670;12.006;2023-05-02T08:20:37;101463.34;;;16.28;31.24
13013;BME280;22580;57.670;12.006;2023-05-02T08:23:04;101499.38;;;16.38;31.27
13013;BME280;22580;57.670;12.006;2023-05-02T08:25:31;101486.00;;;16.69;30.49
13013;BME280;22580;57.670;12.006;2023-05-02T08:27:59;101503.09;;;16.47;31.41
13013;BME280;22580;57.670;12.006;2023-05-02T08:30:26;101497.34;;;17.04;32.55
13013;BME280;22580;57.670;12.006;2023-05-02T08:32:53;101510.84;;;17.04;31.30
13013;BME280;22580;57.670;12.006;2023-05-02T08:35:23;101467.75;;;16.82;30.96
13013;BME280;22580;57.670;12.006;2023-05-02T08:37:50;101502.41;;;16.77;30.52
13013;BME280;22580;57.670;12.006;2023-05-02T08:40:17;101506.16;;;17.27;31.19
13013;BME280;22580;57.670;12.006;2023-05-02T08:42:47;101519.41;;;17.40;30.05
13013;BME280;22580;57.670;12.006;2023-05-02T08:45:16;101507.94;;;17.17;30.41
13013;BME280;22580;57.670;12.006;2023-05-02T08:47:43;101537.13;;;17.02;29.79
13013;BME280;22580;57.670;12.006;2023-05-02T08:50:11;101524.19;;;16.85;30.31
13013;BME280;22580;57.670;12.006;2023-05-02T08:52:38;101526.66;;;17.30;30.77
13013;BME280;22580;57.670;12.006;2023-05-02T08:55:07;101538.00;;;17.54;30.25
13013;BME280;22580;57.670;12.006;2023-05-02T08:57:34;101546.13;;;17.85;29.43
13013;BME280;22580;57.670;12.006;2023-05-02T09:00:00;101548.06;;;17.73;29.43
13013;BME280;22580;57.670;12.006;2023-05-02T09:02:46;101540.09;;;17.20;29.07
13013;BME280;22580;57.670;12.006;2023-05-02T09:05:19;101547.41;;;17.09;29.85
13013;BME280;22580;57.670;12.006;2023-05-02T09:07:47;101547.75;;;17.66;29.54
13013;BME280;22580;57.670;12.006;2023-05-02T09:10:14;101518.09;;;17.25;30.23
13013;BME280;22580;57.670;12.006;2023-05-02T09:12:41;101545.78;;;17.68;28.98
13013;BME280;22580;57.670;12.006;2023-05-02T09:15:11;101553.41;;;18.44;30.88
13013;BME280;22580;57.670;12.006;2023-05-02T09:17:41;101548.75;;;17.96;36.73
13013;BME280;22580;57.670;12.006;2023-05-02T09:20:10;101540.34;;;17.99;32.50
13013;BME280;22580;57.670;12.006;2023-05-02T09:22:37;101582.69;;;17.79;28.68
13013;BME280;22580;57.670;12.006;2023-05-02T09:25:05;101570.03;;;17.80;30.27
13013;BME280;22580;57.670;12.006;2023-05-02T09:27:58;101569.09;;;19.08;32.82
13013;BME280;22580;57.670;12.006;2023-05-02T09:30:26;101577.69;;;19.79;30.03
13013;BME280;22580;57.670;12.006;2023-05-02T09:32:55;101580.09;;;19.16;28.09
13013;BME280;22580;57.670;12.006;2023-05-02T09:35:23;101580.25;;;18.95;28.26
13013;BME280;22580;57.670;12.006;2023-05-02T09:37:51;101570.56;;;18.73;28.39
13013;BME280;22580;57.670;12.006;2023-05-02T09:40:19;101590.28;;;18.35;30.41
13013;BME280;22580;57.670;12.006;2023-05-02T09:42:46;101584.69;;;18.27;30.77
13013;BME280;22580;57.670;12.006;2023-05-02T09:45:20;101585.22;;;17.71;31.73
13013;BME280;22580;57.670;12.006;2023-05-02T09:47:48;101584.16;;;18.43;31.43
13013;BME280;22580;57.670;12.006;2023-05-02T09:50:36;101602.34;;;18.71;29.80
13013;BME280;22580;57.670;12.006;2023-05-02T09:53:04;101610.63;;;18.29;30.84
13013;BME280;22580;57.670;12.006;2023-05-02T09:55:31;101605.38;;;18.38;29.60
13013;BME280;22580;57.670;12.006;2023-05-02T09:57:58;101596.94;;;17.60;31.81
13013;BME280;22580;57.670;12.006;2023-05-02T10:00:43;101598.59;;;17.73;32.00
13013;BME280;22580;57.670;12.006;2023-05-02T10:03:10;101618.53;;;18.52;32.19
13013;BME280;22580;57.670;12.006;2023-05-02T10:05:43;101618.31;;;18.64;31.82
13013;BME280;22580;57.670;12.006;2023-05-02T10:08:11;101617.13;;;18.57;30.25
13013;BME280;22580;57.670;12.006;2023-05-02T10:10:40;101582.53;;;18.11;30.43
13013;BME280;22580;57.670;12.006;2023-05-02T10:13:09;101626.94;;;18.49;30.59
13013;BME280;22580;57.670;12.006;2023-05-02T10:15:42;101622.00;;;17.83;31.60
13013;BME280;22580;57.670;12.006;2023-05-02T10:18:12;101634.78;;;18.52;29.83
13013;BME280;22580;57.670;12.006;2023-05-02T10:20:55;101614.16;;;18.11;29.41
13013;BME280;22580;57.670;12.006;2023-05-02T10:23:27;101629.22;;;18.53;33.56
13013;BME280;22580;57.670;12.006;2023-05-02T10:25:57;101640.72;;;19.24;32.46
13013;BME280;22580;57.670;12.006;2023-05-02T10:28:25;101638.91;;;17.76;29.43
13013;BME280;22580;57.670;12.006;2023-05-02T10:30:53;101654.22;;;17.33;31.17
13013;BME280;22580;57.670;12.006;2023-05-02T10:33:21;101642.84;;;18.32;31.35
13013;BME280;22580;57.670;12.006;2023-05-02T10:35:50;101638.81;;;18.17;30.63
13013;BME280;22580;57.670;12.006;2023-05-02T10:38:20;101639.44;;;18.40;30.48
13013;BME280;22580;57.670;12.006;2023-05-02T10:40:50;101668.81;;;17.42;31.40
13013;BME280;22580;57.670;12.006;2023-05-02T10:43:22;101649.22;;;17.91;32.02
13013;BME280;22580;57.670;12.006;2023-05-02T10:45:51;101678.38;;;17.46;31.02
13013;BME280;22580;57.670;12.006;2023-05-02T10:48:19;101659.34;;;17.89;30.54
13013;BME280;22580;57.670;12.006;2023-05-02T10:50:50;101674.63;;;17.58;30.92
13013;BME280;22580;57.670;12.006;2023-05-02T10:53:28;101652.50;;;18.25;30.81
13013;BME280;22580;57.670;12.006;2023-05-02T10:56:17;101672.78;;;18.41;30.94
13013;BME280;22580;57.670;12.006;2023-05-02T10:58:47;101673.16;;;17.54;29.67
13013;BME280;22580;57.670;12.006;2023-05-02T11:01:35;101675.03;;;17.75;29.45
13013;BME280;22580;57.670;12.006;2023-05-02T11:04:13;101653.03;;;18.10;29.24
13013;BME280;22580;57.670;12.006;2023-05-02T11:07:18;101675.28;;;18.23;30.44
13013;BME280;22580;57.670;12.006;2023-05-02T11:09:45;101681.00;;;17.57;30.83
13013;BME280;22580;57.670;12.006;2023-05-02T11:12:44;101681.78;;;18.81;30.12
13013;BME280;22580;57.670;12.006;2023-05-02T11:15:13;101687.34;;;18.49;29.72
13013;BME280;22580;57.670;12.006;2023-05-02T11:17:59;101671.34;;;18.77;30.19
13013;BME280;22580;57.670;12.006;2023-05-02T11:20:27;101690.50;;;18.94;28.72
13013;BME280;22580;57.670;12.006;2023-05-02T11:22:58;101710.28;;;18.76;27.49
13013;BME280;22580;57.670;12.006;2023-05-02T11:25:36;101705.50;;;19.27;28.86
13013;BME280;22580;57.670;12.006;2023-05-02T11:28:06;101702.78;;;19.76;28.59
13013;BME280;22580;57.670;12.006;2023-05-02T11:30:41;101675.34;;;19.88;28.59
13013;BME280;22580;57.670;12.006;2023-05-02T11:33:16;101710.06;;;19.85;28.41
13013;BME280;22580;57.670;12.006;2023-05-02T11:35:47;101705.78;;;20.29;28.05
13013;BME280;22580;57.670;12.006;2023-05-02T11:38:18;101704.69;;;20.03;27.10
13013;BME280;22580;57.670;12.006;2023-05-02T11:40:50;101715.50;;;19.85;26.51
13013;BME280;22580;57.670;12.006;2023-05-02T11:43:18;101705.50;;;19.37;26.56
13013;BME280;22580;57.670;12.006;2023-05-02T11:45:46;101718.50;;;18.34;27.69
13013;BME280;22580;57.670;12.006;2023-05-02T11:48:15;101718.00;;;18.90;27.25
13013;BME280;22580;57.670;12.006;2023-05-02T11:50:44;101708.66;;;19.61;27.78
13013;BME280;22580;57.670;12.006;2023-05-02T11:53:12;101727.59;;;19.13;27.67
13013;BME280;22580;57.670;12.006;2023-05-02T11:55:48;101720.44;;;18.93;28.09
13013;BME280;22580;57.670;12.006;2023-05-02T11:58:17;101732.25;;;18.82;29.02
13013;BME280;22580;57.670;12.006;2023-05-02T12:00:45;101735.19;;;19.87;27.84
13013;BME280;22580;57.670;12.006;2023-05-02T12:03:22;101733.69;;;20.12;27.15
13013;BME280;22580;57.670;12.006;2023-05-02T12:05:50;101743.34;;;19.58;27.00
13013;BME280;22580;57.670;12.006;2023-05-02T12:08:21;101729.19;;;20.40;26.74
13013;BME280;22580;57.670;12.006;2023-05-02T12:10:51;101759.81;;;20.13;26.53
13013;BME280;22580;57.670;12.006;2023-05-02T12:13:20;101743.84;;;19.13;27.23
13013;BME280;22580;57.670;12.006;2023-05-02T12:15:48;101766.19;;;18.86;28.55
13013;BME280;22580;57.670;12.006;2023-05-02T12:18:16;101762.63;;;19.84;27.53
13013;BME280;22580;57.670;12.006;2023-05-02T12:20:44;101759.00;;;20.59;27.01
13013;BME280;22580;57.670;12.006;2023-05-02T12:23:11;101771.56;;;20.87;26.09
13013;BME280;22580;57.670;12.006;2023-05-02T12:25:39;101757.38;;;20.19;25.39
13013;BME280;22580;57.670;12.006;2023-05-02T12:28:08;101763.97;;;20.17;26.34
13013;BME280;22580;57.670;12.006;2023-05-02T12:30:37;101770.75;;;19.74;26.61
13013;BME280;22580;57.670;12.006;2023-05-02T12:33:05;101772.22;;;20.35;26.74
13013;BME280;22580;57.670;12.006;2023-05-02T12:35:33;101777.41;;;20.09;27.42
13013;BME280;22580;57.670;12.006;2023-05-02T12:38:08;101742.69;;;20.12;27.57
13013;BME280;22580;57.670;12.006;2023-05-02T12:40:36;101779.03;;;20.58;27.59
13013;BME280;22580;57.670;12.006;2023-05-02T12:43:04;101781.13;;;19.98;26.53
13013;BME280;22580;57.670;12.006;2023-05-02T12:45:36;101777.50;;;20.46;25.99
13013;BME280;22580;57.670;12.006;2023-05-02T12:48:17;101787.00;;;20.03;27.37
13013;BME280;22580;57.670;12.006;2023-05-02T12:50:44;101790.19;;;20.55;27.21
13013;BME280;22580;57.670;12.006;2023-05-02T12:53:11;101784.13;;;19.95;25.91